sensor_id;sensor_type;location;lat;lon;timestamp;pressure;altitude;pressure_sealevel;temperature
74485;BMP280;62942;52.462;10.846;2022-09-17T00:00:50;99760;;;
74485;BMP280;62942;52.462;10.846;2022-09-17T00:01:50;99750;;;
74485;BMP280;62942;52.462;10.846;2022-09-17T00:03:00;99750;;;
74485;BMP280;62942;52.462;10.846;2022-09-17T00:04:00;99750;;;
74485;BMP280;62942;52.462;10.846;2022-09-17T00:05:00;99750;;;
74485;BMP280;62942;52.462;10.846;2022-09-17T00:06:10;99750;;;
74485;BMP280;62942;52.462;10.846;2022-09-17T00:07:20;99750;;;
74485;BMP280;62942;52.462;10.846;2022-09-17T00:08:31;99750;;;
74485;BMP280;62942;52.462;10.846;2022-09-17T00:09:40;99750;;;
74485;BMP280;62942;52.462;10.846;2022-09-17T00:10:50;99750;;;
74485;BMP280;62942;52.462;10.846;2022-09-17T00:12:00;99750;;;
74485;BMP280;62942;52.462;10.846;2022-09-17T00:13:10;99750;;;
74485;BMP280;62942;52.462;10.846;2022-09-17T00:14:11;99750;;;
74485;BMP280;62942;52.462;10.846;2022-09-17T00:15:20;99750;;;
74485;BMP280;62942;52.462;10.846;2022-09-17T00:16:31;99760;;;
74485;BMP280;62942;52.462;10.846;2022-09-17T00:17:40;99760;;;
74485;BMP280;62942;52.462;10.846;2022-09-17T00:18:50;99750;;;
74485;BMP280;62942;52.462;10.846;2022-09-17T00:20:00;99760;;;
74485;BMP280;62942;52.462;10.846;2022-09-17T00:21:14;99760;;;
74485;BMP280;62942;52.462;10.846;2022-09-17T00:22:10;99760;;;
74485;BMP280;62942;52.462;10.846;2022-09-17T00:23:20;99750;;;
74485;BMP280;62942;52.462;10.846;2022-09-17T00:24:30;99750;;;
74485;BMP280;62942;52.462;10.846;2022-09-17T00:25:30;99760;;;
74485;BMP280;62942;52.462;10.846;2022-09-17T00:26:40;99760;;;
74485;BMP280;62942;52.462;10.846;2022-09-17T00:27:40;99760;;;
74485;BMP280;62942;52.462;10.846;2022-09-17T00:28:50;99750;;;
74485;BMP280;62942;52.462;10.846;2022-09-17T00:30:00;99760;;;
74485;BMP280;62942;52.462;10.846;2022-09-17T00:31:10;99750;;;
74485;BMP280;62942;52.462;10.846;2022-09-17T00:32:20;99750;;;
74485;BMP280;62942;52.462;10.846;2022-09-17T00:33:30;99750;;;
74485;BMP280;62942;52.462;10.846;2022-09-17T00:34:30;99750;;;
74485;BMP280;62942;52.462;10.846;2022-09-17T00:35:40;99750;;;
74485;BMP280;62942;52.462;10.846;2022-09-17T00:36:40;99750;;;
74485;BMP280;62942;52.462;10.846;2022-09-17T00:37:50;99750;;;
74485;BMP280;62942;52.462;10.846;2022-09-17T00:39:00;99740;;;
74485;BMP280;62942;52.462;10.846;2022-09-17T00:41:38;99750;;;
74485;BMP280;62942;52.462;10.846;2022-09-17T00:42:37;99750;;;
74485;BMP280;62942;52.462;10.846;2022-09-17T00:43:48;99750;;;
74485;BMP280;62942;52.462;10.846;2022-09-17T00:44:57;99740;;;
74485;BMP280;62942;52.462;10.846;2022-09-17T00:46:11;99750;;;
74485;BMP280;62942;52.462;10.846;2022-09-17T00:47:20;99750;;;
74485;BMP280;62942;52.462;10.846;2022-09-17T00:48:27;99750;;;
74485;BMP280;62942;52.462;10.846;2022-09-17T00:49:37;99750;;;
74485;BMP280;62942;52.462;10.846;2022-09-17T00:50:47;99750;;;
74485;BMP280;62942;52.462;10.846;2022-09-17T00:51:58;99740;;;
74485;BMP280;62942;52.462;10.846;2022-09-17T00:53:08;99750;;;
74485;BMP280;62942;52.462;10.846;2022-09-17T00:54:17;99750;;;
74485;BMP280;62942;52.462;10.846;2022-09-17T00:55:18;99750;;;
74485;BMP280;62942;52.462;10.846;2022-09-17T00:56:29;99760;;;
74485;BMP280;62942;52.462;10.846;2022-09-17T00:57:37;99750;;;
74485;BMP280;62942;52.462;10.846;2022-09-17T00:58:47;99750;;;
74485;BMP280;62942;52.462;10.846;2022-09-17T00:59:57;99760;;;
74485;BMP280;62942;52.462;10.846;2022-09-17T01:01:07;99750;;;
74485;BMP280;62942;52.462;10.846;2022-09-17T01:02:07;99750;;;
74485;BMP280;62942;52.462;10.846;2022-09-17T01:03:17;99750;;;
74485;BMP280;62942;52.462;10.846;2022-09-17T01:04:27;99760;;;
74485;BMP280;62942;52.462;10.846;2022-09-17T01:05:39;99760;;;
74485;BMP280;62942;52.462;10.846;2022-09-17T01:06:49;99760;;;
74485;BMP280;62942;52.462;10.846;2022-09-17T01:08:01;99750;;;
74485;BMP280;62942;52.462;10.846;2022-09-17T01:09:02;99760;;;
74485;BMP280;62942;52.462;10.846;2022-09-17T01:10:20;99760;;;
74485;BMP280;62942;52.462;10.846;2022-09-17T01:11:22;99760;;;
74485;BMP280;62942;52.462;10.846;2022-09-17T01:12:36;99750;;;
74485;BMP280;62942;52.462;10.846;2022-09-17T01:13:40;99760;;;
74485;BMP280;62942;52.462;10.846;2022-09-17T01:14:52;99760;;;
74485;BMP280;62942;52.462;10.846;2022-09-17T01:15:58;99760;;;
74485;BMP280;62942;52.462;10.846;2022-09-17T01:17:09;99760;;;
74485;BMP280;62942;52.462;10.846;2022-09-17T01:18:10;99770;;;
74485;BMP280;62942;52.462;10.846;2022-09-17T01:19:24;99760;;;
74485;BMP280;62942;52.462;10.846;2022-09-17T01:20:35;99760;;;
74485;BMP280;62942;52.462;10.846;2022-09-17T01:21:39;99760;;;
74485;BMP280;62942;52.462;10.846;2022-09-17T01:22:39;99760;;;
74485;BMP280;62942;52.462;10.846;2022-09-17T01:23:44;99760;;;
74485;BMP280;62942;52.462;10.846;2022-09-17T01:24:48;99770;;;
74485;BMP280;62942;52.462;10.846;2022-09-17T01:26:00;99760;;;
74485;BMP280;62942;52.462;10.846;2022-09-17T01:27:33;99760;;;
74485;BMP280;62942;52.462;10.846;2022-09-17T01:28:02;99760;;;
74485;BMP280;62942;52.462;10.846;2022-09-17T01:29:11;99770;;;
74485;BMP280;62942;52.462;10.846;2022-09-17T01:30:19;99770;;;
74485;BMP280;62942;52.462;10.846;2022-09-17T01:31:23;99770;;;
74485;BMP280;62942;52.462;10.846;2022-09-17T01:32:18;99770;;;
74485;BMP280;62942;52.462;10.846;2022-09-17T01:33:29;99770;;;
74485;BMP280;62942;52.462;10.846;2022-09-17T01:34:39;99770;;;
74485;BMP280;62942;52.462;10.846;2022-09-17T01:35:48;99760;;;
74485;BMP280;62942;52.462;10.846;2022-09-17T01:36:49;99770;;;
74485;BMP280;62942;52.462;10.846;2022-09-17T01:37:59;99760;;;
74485;BMP280;62942;52.462;10.846;2022-09-17T01:39:09;99750;;;
74485;BMP280;62942;52.462;10.846;2022-09-17T01:40:19;99770;;;
74485;BMP280;62942;52.462;10.846;2022-09-17T01:41:29;99780;;;
74485;BMP280;62942;52.462;10.846;2022-09-17T01:42:39;99770;;;
74485;BMP280;62942;52.462;10.846;2022-09-17T01:43:48;99780;;;
74485;BMP280;62942;52.462;10.846;2022-09-17T01:44:58;99760;;;
74485;BMP280;62942;52.462;10.846;2022-09-17T01:45:58;99770;;;
74485;BMP280;62942;52.462;10.846;2022-09-17T01:47:08;99770;;;
74485;BMP280;62942;52.462;10.846;2022-09-17T01:48:17;99770;;;
74485;BMP280;62942;52.462;10.846;2022-09-17T01:49:27;99770;;;
74485;BMP280;62942;52.462;10.846;2022-09-17T01:50:38;99780;;;
74485;BMP280;62942;52.462;10.846;2022-09-17T01:51:38;99780;;;
74485;BMP280;62942;52.462;10.846;2022-09-17T01:52:48;99780;;;
74485;BMP280;62942;52.462;10.846;2022-09-17T01:53:52;99770;;;
74485;BMP280;62942;52.462;10.846;2022-09-17T01:54:58;99780;;;
74485;BMP280;62942;52.462;10.846;2022-09-17T01:56:07;99780;;;
74485;BMP280;62942;52.462;10.846;2022-09-17T01:57:18;99790;;;
74485;BMP280;62942;52.462;10.846;2022-09-17T01:58:27;99780;;;
74485;BMP280;62942;52.462;10.846;2022-09-17T01:59:39;99790;;;
74485;BMP280;62942;52.462;10.846;2022-09-17T02:00:37;99790;;;
74485;BMP280;62942;52.462;10.846;2022-09-17T02:01:49;99790;;;
74485;BMP280;62942;52.462;10.846;2022-09-17T02:02:58;99800;;;
74485;BMP280;62942;52.462;10.846;2022-09-17T02:04:08;99790;;;
74485;BMP280;62942;52.462;10.846;2022-09-17T02:05:18;99790;;;
74485;BMP280;62942;52.462;10.846;2022-09-17T02:06:18;99800;;;
74485;BMP280;62942;52.462;10.846;2022-09-17T02:07:18;99790;;;
74485;BMP280;62942;52.462;10.846;2022-09-17T02:08:28;99800;;;
74485;BMP280;62942;52.462;10.846;2022-09-17T02:09:28;99800;;;
74485;BMP280;62942;52.462;10.846;2022-09-17T02:10:28;99800;;;
74485;BMP280;62942;52.462;10.846;2022-09-17T02:11:37;99810;;;
74485;BMP280;62942;52.462;10.846;2022-09-17T02:12:48;99810;;;
74485;BMP280;62942;52.462;10.846;2022-09-17T02:13:58;99800;;;
74485;BMP280;62942;52.462;10.846;2022-09-17T02:15:08;99810;;;
74485;BMP280;62942;52.462;10.846;2022-09-17T02:16:19;99810;;;
74485;BMP280;62942;52.462;10.846;2022-09-17T02:17:28;99810;;;
74485;BMP280;62942;52.462;10.846;2022-09-17T02:18:38;99790;;;
74485;BMP280;62942;52.462;10.846;2022-09-17T02:19:47;99800;;;
74485;BMP280;62942;52.462;10.846;2022-09-17T02:21:00;99810;;;
74485;BMP280;62942;52.462;10.846;2022-09-17T02:22:11;99810;;;
74485;BMP280;62942;52.462;10.846;2022-09-17T02:23:18;99810;;;
74485;BMP280;62942;52.462;10.846;2022-09-17T02:24:29;99820;;;
74485;BMP280;62942;52.462;10.846;2022-09-17T02:25:37;99800;;;
74485;BMP280;62942;52.462;10.846;2022-09-17T02:26:38;99810;;;
74485;BMP280;62942;52.462;10.846;2022-09-17T02:27:48;99810;;;
74485;BMP280;62942;52.462;10.846;2022-09-17T02:28:48;99810;;;
74485;BMP280;62942;52.462;10.846;2022-09-17T02:29:47;99810;;;
74485;BMP280;62942;52.462;10.846;2022-09-17T02:30:57;99820;;;
74485;BMP280;62942;52.462;10.846;2022-09-17T02:32:07;99820;;;
74485;BMP280;62942;52.462;10.846;2022-09-17T02:33:17;99810;;;
74485;BMP280;62942;52.462;10.846;2022-09-17T02:34:17;99820;;;
74485;BMP280;62942;52.462;10.846;2022-09-17T02:35:28;99820;;;
74485;BMP280;62942;52.462;10.846;2022-09-17T02:36:37;99820;;;
74485;BMP280;62942;52.462;10.846;2022-09-17T02:37:47;99820;;;
74485;BMP280;62942;52.462;10.846;2022-09-17T02:38:58;99810;;;
74485;BMP280;62942;52.462;10.846;2022-09-17T02:40:08;99800;;;
74485;BMP280;62942;52.462;10.846;2022-09-17T02:41:10;99820;;;
74485;BMP280;62942;52.462;10.846;2022-09-17T02:42:19;99820;;;
74485;BMP280;62942;52.462;10.846;2022-09-17T02:43:28;99820;;;
74485;BMP280;62942;52.462;10.846;2022-09-17T02:44:29;99820;;;
74485;BMP280;62942;52.462;10.846;2022-09-17T02:45:40;99820;;;
74485;BMP280;62942;52.462;10.846;2022-09-17T02:46:42;99820;;;
74485;BMP280;62942;52.462;10.846;2022-09-17T02:47:51;99820;;;
74485;BMP280;62942;52.462;10.846;2022-09-17T02:49:03;99820;;;
74485;BMP280;62942;52.462;10.846;2022-09-17T02:50:00;99830;;;
74485;BMP280;62942;52.462;10.846;2022-09-17T02:51:10;99830;;;
74485;BMP280;62942;52.462;10.846;2022-09-17T02:52:20;99820;;;
74485;BMP280;62942;52.462;10.846;2022-09-17T02:53:30;99830;;;
74485;BMP280;62942;52.462;10.846;2022-09-17T02:54:28;99830;;;
74485;BMP280;62942;52.462;10.846;2022-09-17T02:55:38;99820;;;
74485;BMP280;62942;52.462;10.846;2022-09-17T02:56:48;99830;;;
74485;BMP280;62942;52.462;10.846;2022-09-17T02:57:57;99830;;;
74485;BMP280;62942;52.462;10.846;2022-09-17T02:59:08;99830;;;
74485;BMP280;62942;52.462;10.846;2022-09-17T03:00:08;99830;;;
74485;BMP280;62942;52.462;10.846;2022-09-17T03:01:18;99830;;;
74485;BMP280;62942;52.462;10.846;2022-09-17T03:02:27;99830;;;
74485;BMP280;62942;52.462;10.846;2022-09-17T03:03:28;99830;;;
74485;BMP280;62942;52.462;10.846;2022-09-17T03:04:37;99830;;;
74485;BMP280;62942;52.462;10.846;2022-09-17T03:05:47;99830;;;
74485;BMP280;62942;52.462;10.846;2022-09-17T03:06:57;99830;;;
74485;BMP280;62942;52.462;10.846;2022-09-17T03:08:07;99830;;;
74485;BMP280;62942;52.462;10.846;2022-09-17T03:09:17;99830;;;
74485;BMP280;62942;52.462;10.846;2022-09-17T03:10:17;99830;;;
74485;BMP280;62942;52.462;10.846;2022-09-17T03:11:27;99810;;;
74485;BMP280;62942;52.462;10.846;2022-09-17T03:12:37;99820;;;
74485;BMP280;62942;52.462;10.846;2022-09-17T03:13:47;99820;;;
74485;BMP280;62942;52.462;10.846;2022-09-17T03:14:47;99820;;;
74485;BMP280;62942;52.462;10.846;2022-09-17T03:15:57;99820;;;
74485;BMP280;62942;52.462;10.846;2022-09-17T03:17:07;99830;;;
74485;BMP280;62942;52.462;10.846;2022-09-17T03:18:17;99830;;;
74485;BMP280;62942;52.462;10.846;2022-09-17T03:19:27;99820;;;
74485;BMP280;62942;52.462;10.846;2022-09-17T03:20:27;99820;;;
74485;BMP280;62942;52.462;10.846;2022-09-17T03:21:37;99830;;;
74485;BMP280;62942;52.462;10.846;2022-09-17T03:22:47;99830;;;
74485;BMP280;62942;52.462;10.846;2022-09-17T03:23:57;99830;;;
74485;BMP280;62942;52.462;10.846;2022-09-17T03:25:07;99830;;;
74485;BMP280;62942;52.462;10.846;2022-09-17T03:26:17;99840;;;
74485;BMP280;62942;52.462;10.846;2022-09-17T03:27:27;99830;;;
74485;BMP280;62942;52.462;10.846;2022-09-17T03:28:27;99830;;;
74485;BMP280;62942;52.462;10.846;2022-09-17T03:29:37;99830;;;
74485;BMP280;62942;52.462;10.846;2022-09-17T03:30:47;99830;;;
74485;BMP280;62942;52.462;10.846;2022-09-17T03:31:47;99830;;;
74485;BMP280;62942;52.462;10.846;2022-09-17T03:32:57;99830;;;
74485;BMP280;62942;52.462;10.846;2022-09-17T03:34:07;99840;;;
74485;BMP280;62942;52.462;10.846;2022-09-17T03:35:17;99840;;;
74485;BMP280;62942;52.462;10.846;2022-09-17T03:36:27;99830;;;
74485;BMP280;62942;52.462;10.846;2022-09-17T03:37:27;99830;;;
74485;BMP280;62942;52.462;10.846;2022-09-17T03:38:27;99830;;;
74485;BMP280;62942;52.462;10.846;2022-09-17T03:39:27;99820;;;
74485;BMP280;62942;52.462;10.846;2022-09-17T03:40:37;99830;;;
74485;BMP280;62942;52.462;10.846;2022-09-17T03:41:47;99840;;;
74485;BMP280;62942;52.462;10.846;2022-09-17T03:42:47;99840;;;
74485;BMP280;62942;52.462;10.846;2022-09-17T03:43:57;99840;;;
74485;BMP280;62942;52.462;10.846;2022-09-17T03:45:07;99840;;;
74485;BMP280;62942;52.462;10.846;2022-09-17T03:46:17;99840;;;
74485;BMP280;62942;52.462;10.846;2022-09-17T03:47:17;99830;;;
74485;BMP280;62942;52.462;10.846;2022-09-17T03:48:17;99830;;;
74485;BMP280;62942;52.462;10.846;2022-09-17T03:49:27;99840;;;
74485;BMP280;62942;52.462;10.846;2022-09-17T03:50:37;99830;;;
74485;BMP280;62942;52.462;10.846;2022-09-17T03:51:37;99840;;;
74485;BMP280;62942;52.462;10.846;2022-09-17T03:52:47;99840;;;
74485;BMP280;62942;52.462;10.846;2022-09-17T03:53:47;99840;;;
74485;BMP280;62942;52.462;10.846;2022-09-17T03:54:57;99840;;;
74485;BMP280;62942;52.462;10.846;2022-09-17T03:56:07;99840;;;
74485;BMP280;62942;52.462;10.846;2022-09-17T03:57:17;99830;;;
74485;BMP280;62942;52.462;10.846;2022-09-17T03:58:17;99840;;;
74485;BMP280;62942;52.462;10.846;2022-09-17T03:59:27;99840;;;
74485;BMP280;62942;52.462;10.846;2022-09-17T04:00:27;99840;;;
74485;BMP280;62942;52.462;10.846;2022-09-17T04:01:37;99850;;;
74485;BMP280;62942;52.462;10.846;2022-09-17T04:02:47;99840;;;
74485;BMP280;62942;52.462;10.846;2022-09-17T04:03:47;99850;;;
74485;BMP280;62942;52.462;10.846;2022-09-17T04:04:47;99840;;;
74485;BMP280;62942;52.462;10.846;2022-09-17T04:05:57;99850;;;
74485;BMP280;62942;52.462;10.846;2022-09-17T04:07:08;99850;;;
74485;BMP280;62942;52.462;10.846;2022-09-17T04:08:17;99850;;;
74485;BMP280;62942;52.462;10.846;2022-09-17T04:09:17;99850;;;
74485;BMP280;62942;52.462;10.846;2022-09-17T04:10:27;99850;;;
74485;BMP280;62942;52.462;10.846;2022-09-17T04:11:37;99850;;;
74485;BMP280;62942;52.462;10.846;2022-09-17T04:12:37;99850;;;
74485;BMP280;62942;52.462;10.846;2022-09-17T04:13:37;99850;;;
74485;BMP280;62942;52.462;10.846;2022-09-17T04:14:37;99850;;;
74485;BMP280;62942;52.462;10.846;2022-09-17T04:15:47;99840;;;
74485;BMP280;62942;52.462;10.846;2022-09-17T04:16:57;99840;;;
74485;BMP280;62942;52.462;10.846;2022-09-17T04:18:07;99850;;;
74485;BMP280;62942;52.462;10.846;2022-09-17T04:19:07;99850;;;
74485;BMP280;62942;52.462;10.846;2022-09-17T04:20:07;99870;;;
74485;BMP280;62942;52.462;10.846;2022-09-17T04:21:17;99860;;;
74485;BMP280;62942;52.462;10.846;2022-09-17T04:22:17;99860;;;
74485;BMP280;62942;52.462;10.846;2022-09-17T04:23:27;99860;;;
74485;BMP280;62942;52.462;10.846;2022-09-17T04:24:37;99860;;;
74485;BMP280;62942;52.462;10.846;2022-09-17T04:25:37;99860;;;
74485;BMP280;62942;52.462;10.846;2022-09-17T04:26:47;99870;;;
74485;BMP280;62942;52.462;10.846;2022-09-17T04:27:47;99860;;;
74485;BMP280;62942;52.462;10.846;2022-09-17T04:28:57;99860;;;
74485;BMP280;62942;52.462;10.846;2022-09-17T04:29:57;99860;;;
74485;BMP280;62942;52.462;10.846;2022-09-17T04:30:57;99860;;;
74485;BMP280;62942;52.462;10.846;2022-09-17T04:31:57;99860;;;
74485;BMP280;62942;52.462;10.846;2022-09-17T04:32:57;99870;;;
74485;BMP280;62942;52.462;10.846;2022-09-17T04:34:07;99870;;;
74485;BMP280;62942;52.462;10.846;2022-09-17T04:35:07;99860;;;
74485;BMP280;62942;52.462;10.846;2022-09-17T04:36:07;99870;;;
74485;BMP280;62942;52.462;10.846;2022-09-17T04:37:17;99860;;;
74485;BMP280;62942;52.462;10.846;2022-09-17T04:38:17;99870;;;
74485;BMP280;62942;52.462;10.846;2022-09-17T04:39:27;99870;;;
74485;BMP280;62942;52.462;10.846;2022-09-17T04:40:37;99880;;;
74485;BMP280;62942;52.462;10.846;2022-09-17T04:41:37;99870;;;
74485;BMP280;62942;52.462;10.846;2022-09-17T04:42:47;99870;;;
74485;BMP280;62942;52.462;10.846;2022-09-17T04:43:47;99880;;;
74485;BMP280;62942;52.462;10.846;2022-09-17T04:44:57;99870;;;
74485;BMP280;62942;52.462;10.846;2022-09-17T04:45:57;99870;;;
74485;BMP280;62942;52.462;10.846;2022-09-17T04:47:07;99870;;;
74485;BMP280;62942;52.462;10.846;2022-09-17T04:48:17;99870;;;
74485;BMP280;62942;52.462;10.846;2022-09-17T04:49:27;99860;;;
74485;BMP280;62942;52.462;10.846;2022-09-17T04:50:27;99870;;;
74485;BMP280;62942;52.462;10.846;2022-09-17T04:51:37;99860;;;
74485;BMP280;62942;52.462;10.846;2022-09-17T04:52:47;99860;;;
74485;BMP280;62942;52.462;10.846;2022-09-17T04:53:57;99880;;;
74485;BMP280;62942;52.462;10.846;2022-09-17T04:54:57;99860;;;
74485;BMP280;62942;52.462;10.846;2022-09-17T04:55:57;99880;;;
74485;BMP280;62942;52.462;10.846;2022-09-17T04:57:07;99860;;;
74485;BMP280;62942;52.462;10.846;2022-09-17T04:58:17;99850;;;
74485;BMP280;62942;52.462;10.846;2022-09-17T04:59:27;99860;;;
74485;BMP280;62942;52.462;10.846;2022-09-17T05:00:37;99860;;;
74485;BMP280;62942;52.462;10.846;2022-09-17T05:01:47;99860;;;
74485;BMP280;62942;52.462;10.846;2022-09-17T05:02:47;99860;;;
74485;BMP280;62942;52.462;10.846;2022-09-17T05:03:57;99860;;;
74485;BMP280;62942;52.462;10.846;2022-09-17T05:05:07;99870;;;
74485;BMP280;62942;52.462;10.846;2022-09-17T05:06:17;99870;;;
74485;BMP280;62942;52.462;10.846;2022-09-17T05:07:17;99870;;;
74485;BMP280;62942;52.462;10.846;2022-09-17T05:08:27;99870;;;
74485;BMP280;62942;52.462;10.846;2022-09-17T05:09:37;99890;;;
74485;BMP280;62942;52.462;10.846;2022-09-17T05:10:48;99890;;;
74485;BMP280;62942;52.462;10.846;2022-09-17T05:11:57;99890;;;
74485;BMP280;62942;52.462;10.846;2022-09-17T05:12:57;99890;;;
74485;BMP280;62942;52.462;10.846;2022-09-17T05:13:57;99890;;;
74485;BMP280;62942;52.462;10.846;2022-09-17T05:15:07;99900;;;
74485;BMP280;62942;52.462;10.846;2022-09-17T05:16:07;99900;;;
74485;BMP280;62942;52.462;10.846;2022-09-17T05:17:07;99890;;;
74485;BMP280;62942;52.462;10.846;2022-09-17T05:18:17;99890;;;
74485;BMP280;62942;52.462;10.846;2022-09-17T05:19:27;99890;;;
74485;BMP280;62942;52.462;10.846;2022-09-17T05:20:37;99890;;;
74485;BMP280;62942;52.462;10.846;2022-09-17T05:21:37;99890;;;
74485;BMP280;62942;52.462;10.846;2022-09-17T05:22:47;99900;;;
74485;BMP280;62942;52.462;10.846;2022-09-17T05:23:47;99890;;;
74485;BMP280;62942;52.462;10.846;2022-09-17T05:24:57;99900;;;
74485;BMP280;62942;52.462;10.846;2022-09-17T05:25:57;99900;;;
74485;BMP280;62942;52.462;10.846;2022-09-17T05:27:07;99900;;;
74485;BMP280;62942;52.462;10.846;2022-09-17T05:28:17;99900;;;
74485;BMP280;62942;52.462;10.846;2022-09-17T05:29:17;99890;;;
74485;BMP280;62942;52.462;10.846;2022-09-17T05:30:17;99900;;;
74485;BMP280;62942;52.462;10.846;2022-09-17T05:31:27;99900;;;
74485;BMP280;62942;52.462;10.846;2022-09-17T05:32:37;99900;;;
74485;BMP280;62942;52.462;10.846;2022-09-17T05:33:47;99910;;;
74485;BMP280;62942;52.462;10.846;2022-09-17T05:34:57;99910;;;
74485;BMP280;62942;52.462;10.846;2022-09-17T05:35:57;99900;;;
74485;BMP280;62942;52.462;10.846;2022-09-17T05:37:08;99910;;;
74485;BMP280;62942;52.462;10.846;2022-09-17T05:38:07;99900;;;
74485;BMP280;62942;52.462;10.846;2022-09-17T05:39:17;99920;;;
74485;BMP280;62942;52.462;10.846;2022-09-17T05:40:27;99920;;;
74485;BMP280;62942;52.462;10.846;2022-09-17T05:41:37;99920;;;
74485;BMP280;62942;52.462;10.846;2022-09-17T05:42:47;99930;;;
74485;BMP280;62942;52.462;10.846;2022-09-17T05:43:57;99920;;;
74485;BMP280;62942;52.462;10.846;2022-09-17T05:44:57;99920;;;
74485;BMP280;62942;52.462;10.846;2022-09-17T05:46:07;99920;;;
74485;BMP280;62942;52.462;10.846;2022-09-17T05:47:17;99930;;;
74485;BMP280;62942;52.462;10.846;2022-09-17T05:48:27;99930;;;
74485;BMP280;62942;52.462;10.846;2022-09-17T05:49:37;99930;;;
74485;BMP280;62942;52.462;10.846;2022-09-17T05:50:47;99930;;;
74485;BMP280;62942;52.462;10.846;2022-09-17T05:51:48;99930;;;
74485;BMP280;62942;52.462;10.846;2022-09-17T05:53:00;99930;;;
74485;BMP280;62942;52.462;10.846;2022-09-17T05:53:57;99940;;;
74485;BMP280;62942;52.462;10.846;2022-09-17T05:55:07;99930;;;
74485;BMP280;62942;52.462;10.846;2022-09-17T05:56:17;99930;;;
74485;BMP280;62942;52.462;10.846;2022-09-17T05:57:27;99930;;;
74485;BMP280;62942;52.462;10.846;2022-09-17T05:58:37;99930;;;
74485;BMP280;62942;52.462;10.846;2022-09-17T05:59:47;99930;;;
74485;BMP280;62942;52.462;10.846;2022-09-17T06:00:47;99930;;;
74485;BMP280;62942;52.462;10.846;2022-09-17T06:01:57;99940;;;
74485;BMP280;62942;52.462;10.846;2022-09-17T06:02:57;99930;;;
74485;BMP280;62942;52.462;10.846;2022-09-17T06:04:07;99930;;;
74485;BMP280;62942;52.462;10.846;2022-09-17T06:05:17;99930;;;
74485;BMP280;62942;52.462;10.846;2022-09-17T06:06:17;99930;;;
74485;BMP280;62942;52.462;10.846;2022-09-17T06:07:27;99940;;;
74485;BMP280;62942;52.462;10.846;2022-09-17T06:08:37;99940;;;
74485;BMP280;62942;52.462;10.846;2022-09-17T06:09:37;99940;;;
74485;BMP280;62942;52.462;10.846;2022-09-17T06:10:47;99940;;;
74485;BMP280;62942;52.462;10.846;2022-09-17T06:11:57;99940;;;
74485;BMP280;62942;52.462;10.846;2022-09-17T06:12:57;99950;;;
74485;BMP280;62942;52.462;10.846;2022-09-17T06:14:07;99950;;;
74485;BMP280;62942;52.462;10.846;2022-09-17T06:15:17;99950;;;
74485;BMP280;62942;52.462;10.846;2022-09-17T06:16:17;99950;;;
74485;BMP280;62942;52.462;10.846;2022-09-17T06:17:27;99960;;;
74485;BMP280;62942;52.462;10.846;2022-09-17T06:18:37;99940;;;
74485;BMP280;62942;52.462;10.846;2022-09-17T06:19:47;99960;;;
74485;BMP280;62942;52.462;10.846;2022-09-17T06:20:54;99960;;;
74485;BMP280;62942;52.462;10.846;2022-09-17T06:21:57;99960;;;
74485;BMP280;62942;52.462;10.846;2022-09-17T06:23:07;99950;;;
74485;BMP280;62942;52.462;10.846;2022-09-17T06:24:17;99960;;;
74485;BMP280;62942;52.462;10.846;2022-09-17T06:25:27;99960;;;
74485;BMP280;62942;52.462;10.846;2022-09-17T06:26:27;99960;;;
74485;BMP280;62942;52.462;10.846;2022-09-17T06:27:37;99960;;;
74485;BMP280;62942;52.462;10.846;2022-09-17T06:28:37;99970;;;
74485;BMP280;62942;52.462;10.846;2022-09-17T06:29:37;99960;;;
74485;BMP280;62942;52.462;10.846;2022-09-17T06:30:37;99960;;;
74485;BMP280;62942;52.462;10.846;2022-09-17T06:31:37;99970;;;
74485;BMP280;62942;52.462;10.846;2022-09-17T06:32:47;99960;;;
74485;BMP280;62942;52.462;10.846;2022-09-17T06:33:57;99970;;;
74485;BMP280;62942;52.462;10.846;2022-09-17T06:34:57;99960;;;
74485;BMP280;62942;52.462;10.846;2022-09-17T06:36:07;99960;;;
74485;BMP280;62942;52.462;10.846;2022-09-17T06:37:07;99960;;;
74485;BMP280;62942;52.462;10.846;2022-09-17T06:38:17;99970;;;
74485;BMP280;62942;52.462;10.846;2022-09-17T06:39:27;99960;;;
74485;BMP280;62942;52.462;10.846;2022-09-17T06:40:27;99960;;;
74485;BMP280;62942;52.462;10.846;2022-09-17T06:41:27;99970;;;
74485;BMP280;62942;52.462;10.846;2022-09-17T06:42:37;99970;;;
74485;BMP280;62942;52.462;10.846;2022-09-17T06:43:37;99970;;;
74485;BMP280;62942;52.462;10.846;2022-09-17T06:44:47;99970;;;
74485;BMP280;62942;52.462;10.846;2022-09-17T06:45:50;99970;;;
74485;BMP280;62942;52.462;10.846;2022-09-17T06:46:57;99970;;;
74485;BMP280;62942;52.462;10.846;2022-09-17T06:48:07;99980;;;
74485;BMP280;62942;52.462;10.846;2022-09-17T06:49:17;99970;;;
74485;BMP280;62942;52.462;10.846;2022-09-17T06:50:17;99970;;;
74485;BMP280;62942;52.462;10.846;2022-09-17T06:51:27;99970;;;
74485;BMP280;62942;52.462;10.846;2022-09-17T06:52:27;99970;;;
74485;BMP280;62942;52.462;10.846;2022-09-17T06:53:37;99970;;;
74485;BMP280;62942;52.462;10.846;2022-09-17T06:54:37;99970;;;
74485;BMP280;62942;52.462;10.846;2022-09-17T06:55:47;99970;;;
74485;BMP280;62942;52.462;10.846;2022-09-17T06:56:47;99970;;;
74485;BMP280;62942;52.462;10.846;2022-09-17T06:57:57;99970;;;
74485;BMP280;62942;52.462;10.846;2022-09-17T06:59:07;99970;;;
74485;BMP280;62942;52.462;10.846;2022-09-17T07:00:07;99960;;;
74485;BMP280;62942;52.462;10.846;2022-09-17T07:01:17;99960;;;
74485;BMP280;62942;52.462;10.846;2022-09-17T07:02:27;99960;;;
74485;BMP280;62942;52.462;10.846;2022-09-17T07:03:27;99970;;;
74485;BMP280;62942;52.462;10.846;2022-09-17T07:04:37;99960;;;
74485;BMP280;62942;52.462;10.846;2022-09-17T07:05:37;99970;;;
74485;BMP280;62942;52.462;10.846;2022-09-17T07:06:47;99960;;;
74485;BMP280;62942;52.462;10.846;2022-09-17T07:07:59;99960;;;
74485;BMP280;62942;52.462;10.846;2022-09-17T07:09:07;99960;;;
74485;BMP280;62942;52.462;10.846;2022-09-17T07:10:17;99960;;;